sensor_id;sensor_type;location;lat;lon;timestamp;P1;durP1;ratioP1;P2;durP2;ratioP2
74941;SDS011;63506;49.346;8.798;2022-09-24T00:01:37;7.30;;;5.95;;
74941;SDS011;63506;49.346;8.798;2022-09-24T00:04:04;12.70;;;5.97;;
74941;SDS011;63506;49.346;8.798;2022-09-24T00:06:38;5.82;;;5.22;;
74941;SDS011;63506;49.346;8.798;2022-09-24T00:09:10;6.38;;;5.78;;
74941;SDS011;63506;49.346;8.798;2022-09-24T00:11:37;9.52;;;6.10;;
74941;SDS011;63506;49.346;8.798;2022-09-24T00:14:03;13.77;;;6.10;;
74941;SDS011;63506;49.346;8.798;2022-09-24T00:16:34;7.80;;;6.57;;
74941;SDS011;63506;49.346;8.798;2022-09-24T00:19:03;12.05;;;6.40;;
74941;SDS011;63506;49.346;8.798;2022-09-24T00:21:30;6.85;;;6.15;;
74941;SDS011;63506;49.346;8.798;2022-09-24T00:24:00;8.43;;;5.85;;
74941;SDS011;63506;49.346;8.798;2022-09-24T00:26:34;6.88;;;5.55;;
74941;SDS011;63506;49.346;8.798;2022-09-24T00:29:19;7.32;;;5.90;;
74941;SDS011;63506;49.346;8.798;2022-09-24T00:31:47;7.43;;;5.38;;
74941;SDS011;63506;49.346;8.798;2022-09-24T00:34:16;11.63;;;6.43;;
74941;SDS011;63506;49.346;8.798;2022-09-24T00:36:42;8.55;;;6.38;;
74941;SDS011;63506;49.346;8.798;2022-09-24T00:39:11;7.30;;;6.07;;
74941;SDS011;63506;49.346;8.798;2022-09-24T00:41:40;8.10;;;6.47;;
74941;SDS011;63506;49.346;8.798;2022-09-24T00:47:24;8.23;;;7.40;;
74941;SDS011;63506;49.346;8.798;2022-09-24T00:50:07;8.40;;;7.00;;
74941;SDS011;63506;49.346;8.798;2022-09-24T00:52:39;7.88;;;6.63;;
74941;SDS011;63506;49.346;8.798;2022-09-24T00:55:10;8.25;;;7.43;;
74941;SDS011;63506;49.346;8.798;2022-09-24T00:57:38;9.35;;;7.22;;
74941;SDS011;63506;49.346;8.798;2022-09-24T01:00:06;8.85;;;6.75;;
74941;SDS011;63506;49.346;8.798;2022-09-24T01:02:34;7.43;;;5.70;;
74941;SDS011;63506;49.346;8.798;2022-09-24T01:05:04;7.63;;;6.82;;
74941;SDS011;63506;49.346;8.798;2022-09-24T01:07:30;6.00;;;5.38;;
74941;SDS011;63506;49.346;8.798;2022-09-24T01:09:56;8.43;;;7.05;;
74941;SDS011;63506;49.346;8.798;2022-09-24T01:12:35;6.80;;;6.07;;
74941;SDS011;63506;49.346;8.798;2022-09-24T01:18:04;7.10;;;6.28;;
74941;SDS011;63506;49.346;8.798;2022-09-24T01:31:38;8.70;;;7.80;;
74941;SDS011;63506;49.346;8.798;2022-09-24T01:34:13;11.52;;;5.45;;
74941;SDS011;63506;49.346;8.798;2022-09-24T01:36:42;7.72;;;5.50;;
74941;SDS011;63506;49.346;8.798;2022-09-24T01:39:12;7.35;;;6.18;;
74941;SDS011;63506;49.346;8.798;2022-09-24T01:41:39;6.35;;;5.75;;
74941;SDS011;63506;49.346;8.798;2022-09-24T01:44:07;10.40;;;5.40;;
74941;SDS011;63506;49.346;8.798;2022-09-24T01:46:36;9.93;;;6.40;;
74941;SDS011;63506;49.346;8.798;2022-09-24T01:49:04;7.80;;;6.38;;
74941;SDS011;63506;49.346;8.798;2022-09-24T01:51:33;5.95;;;5.40;;
74941;SDS011;63506;49.346;8.798;2022-09-24T01:56:56;6.13;;;5.45;;
74941;SDS011;63506;49.346;8.798;2022-09-24T01:59:43;7.72;;;5.88;;
74941;SDS011;63506;49.346;8.798;2022-09-24T02:02:22;8.40;;;6.35;;
74941;SDS011;63506;49.346;8.798;2022-09-24T02:04:58;9.00;;;6.60;;
74941;SDS011;63506;49.346;8.798;2022-09-24T02:07:34;8.25;;;6.22;;
74941;SDS011;63506;49.346;8.798;2022-09-24T02:10:05;6.20;;;5.60;;
74941;SDS011;63506;49.346;8.798;2022-09-24T02:12:38;8.52;;;6.05;;
74941;SDS011;63506;49.346;8.798;2022-09-24T02:15:18;8.00;;;5.97;;
74941;SDS011;63506;49.346;8.798;2022-09-24T02:17:55;8.63;;;6.20;;
74941;SDS011;63506;49.346;8.798;2022-09-24T02:20:25;6.82;;;5.53;;
74941;SDS011;63506;49.346;8.798;2022-09-24T02:22:53;6.93;;;5.35;;
74941;SDS011;63506;49.346;8.798;2022-09-24T02:25:27;8.02;;;7.18;;
74941;SDS011;63506;49.346;8.798;2022-09-24T02:28:00;11.10;;;6.75;;
74941;SDS011;63506;49.346;8.798;2022-09-24T02:30:28;7.53;;;6.75;;
74941;SDS011;63506;49.346;8.798;2022-09-24T02:33:01;7.35;;;6.40;;
74941;SDS011;63506;49.346;8.798;2022-09-24T02:35:47;8.45;;;6.78;;
74941;SDS011;63506;49.346;8.798;2022-09-24T02:38:14;6.57;;;5.97;;
74941;SDS011;63506;49.346;8.798;2022-09-24T02:40:43;5.72;;;5.13;;
74941;SDS011;63506;49.346;8.798;2022-09-24T02:43:10;7.03;;;5.30;;
74941;SDS011;63506;49.346;8.798;2022-09-24T02:45:36;8.00;;;6.75;;
74941;SDS011;63506;49.346;8.798;2022-09-24T02:48:03;7.32;;;6.20;;
74941;SDS011;63506;49.346;8.798;2022-09-24T02:50:29;8.10;;;6.00;;
74941;SDS011;63506;49.346;8.798;2022-09-24T02:53:00;8.50;;;7.07;;
74941;SDS011;63506;49.346;8.798;2022-09-24T02:55:29;14.35;;;5.82;;
74941;SDS011;63506;49.346;8.798;2022-09-24T02:57:57;9.48;;;5.88;;
74941;SDS011;63506;49.346;8.798;2022-09-24T03:00:26;21.38;;;6.28;;
74941;SDS011;63506;49.346;8.798;2022-09-24T03:02:56;10.63;;;6.47;;
74941;SDS011;63506;49.346;8.798;2022-09-24T03:05:22;6.85;;;5.85;;
74941;SDS011;63506;49.346;8.798;2022-09-24T03:07:53;6.22;;;5.63;;
74941;SDS011;63506;49.346;8.798;2022-09-24T03:10:19;8.35;;;6.95;;
74941;SDS011;63506;49.346;8.798;2022-09-24T03:12:50;8.63;;;6.10;;
74941;SDS011;63506;49.346;8.798;2022-09-24T03:15:16;6.55;;;5.88;;
74941;SDS011;63506;49.346;8.798;2022-09-24T03:17:45;7.78;;;5.90;;
74941;SDS011;63506;49.346;8.798;2022-09-24T03:20:13;8.40;;;6.65;;
74941;SDS011;63506;49.346;8.798;2022-09-24T03:22:41;11.15;;;6.80;;
74941;SDS011;63506;49.346;8.798;2022-09-24T03:25:08;6.53;;;5.82;;
74941;SDS011;63506;49.346;8.798;2022-09-24T03:27:35;6.60;;;5.50;;
74941;SDS011;63506;49.346;8.798;2022-09-24T03:30:02;7.47;;;5.05;;
74941;SDS011;63506;49.346;8.798;2022-09-24T03:32:49;10.05;;;7.07;;
74941;SDS011;63506;49.346;8.798;2022-09-24T03:35:15;6.03;;;5.45;;
74941;SDS011;63506;49.346;8.798;2022-09-24T03:37:44;6.70;;;5.82;;
74941;SDS011;63506;49.346;8.798;2022-09-24T03:40:11;5.47;;;4.97;;
74941;SDS011;63506;49.346;8.798;2022-09-24T03:42:39;6.72;;;5.28;;
74941;SDS011;63506;49.346;8.798;2022-09-24T03:45:06;8.73;;;7.40;;
74941;SDS011;63506;49.346;8.798;2022-09-24T03:47:32;5.93;;;5.35;;
74941;SDS011;63506;49.346;8.798;2022-09-24T03:50:01;6.35;;;5.45;;
74941;SDS011;63506;49.346;8.798;2022-09-24T03:52:30;7.95;;;6.30;;
74941;SDS011;63506;49.346;8.798;2022-09-24T03:54:58;7.43;;;5.47;;
74941;SDS011;63506;49.346;8.798;2022-09-24T03:57:26;5.88;;;5.38;;
74941;SDS011;63506;49.346;8.798;2022-09-24T03:59:53;7.93;;;5.13;;
74941;SDS011;63506;49.346;8.798;2022-09-24T04:02:20;6.72;;;6.13;;
74941;SDS011;63506;49.346;8.798;2022-09-24T04:04:48;6.47;;;5.72;;
74941;SDS011;63506;49.346;8.798;2022-09-24T04:07:20;7.22;;;5.75;;
74941;SDS011;63506;49.346;8.798;2022-09-24T04:09:46;8.00;;;5.28;;
74941;SDS011;63506;49.346;8.798;2022-09-24T04:12:12;9.20;;;7.20;;
74941;SDS011;63506;49.346;8.798;2022-09-24T04:14:39;9.70;;;5.78;;
74941;SDS011;63506;49.346;8.798;2022-09-24T04:17:06;7.55;;;6.47;;
74941;SDS011;63506;49.346;8.798;2022-09-24T04:19:34;9.90;;;6.38;;
74941;SDS011;63506;49.346;8.798;2022-09-24T04:22:00;5.93;;;5.30;;
74941;SDS011;63506;49.346;8.798;2022-09-24T04:24:26;7.32;;;6.00;;
74941;SDS011;63506;49.346;8.798;2022-09-24T04:26:57;13.10;;;7.68;;
74941;SDS011;63506;49.346;8.798;2022-09-24T04:29:23;9.07;;;6.18;;
74941;SDS011;63506;49.346;8.798;2022-09-24T04:31:55;8.13;;;7.18;;
74941;SDS011;63506;49.346;8.798;2022-09-24T04:34:21;7.75;;;5.85;;
74941;SDS011;63506;49.346;8.798;2022-09-24T04:36:47;6.43;;;4.90;;
74941;SDS011;63506;49.346;8.798;2022-09-24T04:39:13;9.40;;;6.60;;
74941;SDS011;63506;49.346;8.798;2022-09-24T04:41:45;8.88;;;6.68;;
74941;SDS011;63506;49.346;8.798;2022-09-24T04:44:12;10.45;;;6.43;;
74941;SDS011;63506;49.346;8.798;2022-09-24T04:46:40;10.18;;;8.60;;
74941;SDS011;63506;49.346;8.798;2022-09-24T04:49:07;7.93;;;7.13;;
74941;SDS011;63506;49.346;8.798;2022-09-24T04:51:34;6.80;;;5.97;;
74941;SDS011;63506;49.346;8.798;2022-09-24T04:54:02;6.68;;;5.97;;
74941;SDS011;63506;49.346;8.798;2022-09-24T04:56:29;6.70;;;5.95;;
74941;SDS011;63506;49.346;8.798;2022-09-24T04:59:01;11.50;;;6.32;;
74941;SDS011;63506;49.346;8.798;2022-09-24T05:01:29;13.40;;;6.18;;
74941;SDS011;63506;49.346;8.798;2022-09-24T05:03:58;7.95;;;6.72;;
74941;SDS011;63506;49.346;8.798;2022-09-24T05:06:24;7.55;;;6.53;;
74941;SDS011;63506;49.346;8.798;2022-09-24T05:08:57;6.05;;;5.45;;
74941;SDS011;63506;49.346;8.798;2022-09-24T05:11:28;7.10;;;6.05;;
74941;SDS011;63506;49.346;8.798;2022-09-24T05:13:59;7.75;;;6.40;;
74941;SDS011;63506;49.346;8.798;2022-09-24T05:16:25;7.38;;;6.63;;
74941;SDS011;63506;49.346;8.798;2022-09-24T05:18:59;12.50;;;7.63;;
74941;SDS011;63506;49.346;8.798;2022-09-24T05:21:32;8.77;;;6.65;;
74941;SDS011;63506;49.346;8.798;2022-09-24T05:23:58;9.15;;;7.22;;
74941;SDS011;63506;49.346;8.798;2022-09-24T05:26:24;8.38;;;7.57;;
74941;SDS011;63506;49.346;8.798;2022-09-24T05:29:08;10.95;;;9.85;;
74941;SDS011;63506;49.346;8.798;2022-09-24T05:31:42;13.45;;;8.80;;
74941;SDS011;63506;49.346;8.798;2022-09-24T05:34:10;6.55;;;5.95;;
74941;SDS011;63506;49.346;8.798;2022-09-24T05:36:39;8.38;;;7.57;;
74941;SDS011;63506;49.346;8.798;2022-09-24T05:39:09;7.80;;;6.35;;
74941;SDS011;63506;49.346;8.798;2022-09-24T05:41:36;7.78;;;6.63;;
74941;SDS011;63506;49.346;8.798;2022-09-24T05:44:07;10.13;;;7.18;;
74941;SDS011;63506;49.346;8.798;2022-09-24T05:46:40;7.85;;;7.05;;
74941;SDS011;63506;49.346;8.798;2022-09-24T05:49:11;7.90;;;7.20;;
74941;SDS011;63506;49.346;8.798;2022-09-24T05:51:46;8.32;;;7.30;;
74941;SDS011;63506;49.346;8.798;2022-09-24T05:54:13;6.32;;;5.72;;
74941;SDS011;63506;49.346;8.798;2022-09-24T05:56:44;9.05;;;7.82;;
74941;SDS011;63506;49.346;8.798;2022-09-24T05:59:13;12.00;;;8.68;;
74941;SDS011;63506;49.346;8.798;2022-09-24T06:01:41;8.40;;;7.38;;
74941;SDS011;63506;49.346;8.798;2022-09-24T06:04:09;8.52;;;5.85;;
74941;SDS011;63506;49.346;8.798;2022-09-24T06:06:39;6.95;;;6.25;;
74941;SDS011;63506;49.346;8.798;2022-09-24T06:09:08;8.27;;;7.38;;
74941;SDS011;63506;49.346;8.798;2022-09-24T06:11:36;8.77;;;7.28;;
74941;SDS011;63506;49.346;8.798;2022-09-24T06:14:03;9.98;;;8.45;;
74941;SDS011;63506;49.346;8.798;2022-09-24T06:16:32;6.88;;;6.18;;
74941;SDS011;63506;49.346;8.798;2022-09-24T06:18:59;9.38;;;6.07;;
74941;SDS011;63506;49.346;8.798;2022-09-24T06:21:27;8.02;;;6.65;;
74941;SDS011;63506;49.346;8.798;2022-09-24T06:23:53;7.38;;;6.70;;
74941;SDS011;63506;49.346;8.798;2022-09-24T06:26:24;9.60;;;7.22;;
74941;SDS011;63506;49.346;8.798;2022-09-24T06:28:56;8.73;;;7.60;;
74941;SDS011;63506;49.346;8.798;2022-09-24T06:31:22;10.55;;;8.32;;
74941;SDS011;63506;49.346;8.798;2022-09-24T06:33:51;8.82;;;7.93;;
74941;SDS011;63506;49.346;8.798;2022-09-24T06:36:19;8.35;;;7.50;;
74941;SDS011;63506;49.346;8.798;2022-09-24T06:38:52;11.35;;;7.53;;
74941;SDS011;63506;49.346;8.798;2022-09-24T06:41:23;11.70;;;8.52;;
74941;SDS011;63506;49.346;8.798;2022-09-24T06:43:52;8.35;;;7.22;;
74941;SDS011;63506;49.346;8.798;2022-09-24T06:46:23;8.88;;;6.72;;
74941;SDS011;63506;49.346;8.798;2022-09-24T06:48:54;12.98;;;6.95;;
74941;SDS011;63506;49.346;8.798;2022-09-24T06:51:20;9.15;;;6.55;;
74941;SDS011;63506;49.346;8.798;2022-09-24T06:53:50;8.57;;;7.72;;
74941;SDS011;63506;49.346;8.798;2022-09-24T06:56:19;8.15;;;7.40;;
74941;SDS011;63506;49.346;8.798;2022-09-24T06:58:48;14.57;;;8.07;;
74941;SDS011;63506;49.346;8.798;2022-09-24T07:01:16;9.18;;;8.27;;
74941;SDS011;63506;49.346;8.798;2022-09-24T07:03:44;9.90;;;7.40;;
74941;SDS011;63506;49.346;8.798;2022-09-24T07:06:15;8.43;;;7.00;;
74941;SDS011;63506;49.346;8.798;2022-09-24T07:08:42;9.77;;;6.95;;
74941;SDS011;63506;49.346;8.798;2022-09-24T07:11:19;7.15;;;6.45;;
74941;SDS011;63506;49.346;8.798;2022-09-24T07:13:47;7.47;;;6.82;;
74941;SDS011;63506;49.346;8.798;2022-09-24T07:16:20;7.43;;;6.53;;
74941;SDS011;63506;49.346;8.798;2022-09-24T07:18:46;7.25;;;6.40;;
74941;SDS011;63506;49.346;8.798;2022-09-24T07:21:13;7.35;;;6.45;;
74941;SDS011;63506;49.346;8.798;2022-09-24T07:23:39;9.95;;;6.00;;
74941;SDS011;63506;49.346;8.798;2022-09-24T07:26:08;7.78;;;7.10;;
74941;SDS011;63506;49.346;8.798;2022-09-24T07:28:34;13.15;;;7.25;;
74941;SDS011;63506;49.346;8.798;2022-09-24T07:31:00;7.50;;;6.25;;
74941;SDS011;63506;49.346;8.798;2022-09-24T07:33:29;6.40;;;5.63;;
74941;SDS011;63506;49.346;8.798;2022-09-24T07:36:02;9.45;;;6.55;;
74941;SDS011;63506;49.346;8.798;2022-09-24T07:38:36;6.35;;;5.70;;
74941;SDS011;63506;49.346;8.798;2022-09-24T07:41:05;8.30;;;6.90;;
74941;SDS011;63506;49.346;8.798;2022-09-24T07:43:33;7.68;;;5.60;;
74941;SDS011;63506;49.346;8.798;2022-09-24T07:46:04;7.45;;;6.18;;
74941;SDS011;63506;49.346;8.798;2022-09-24T07:48:33;8.25;;;6.63;;
74941;SDS011;63506;49.346;8.798;2022-09-24T07:51:01;14.00;;;6.95;;
74941;SDS011;63506;49.346;8.798;2022-09-24T07:53:28;7.22;;;6.55;;
74941;SDS011;63506;49.346;8.798;2022-09-24T07:58:29;11.88;;;7.65;;
74941;SDS011;63506;49.346;8.798;2022-09-24T08:01:01;8.23;;;7.43;;
74941;SDS011;63506;49.346;8.798;2022-09-24T08:03:27;8.77;;;7.05;;
74941;SDS011;63506;49.346;8.798;2022-09-24T08:05:54;7.75;;;6.97;;
74941;SDS011;63506;49.346;8.798;2022-09-24T08:08:23;9.23;;;7.40;;
74941;SDS011;63506;49.346;8.798;2022-09-24T08:10:54;10.15;;;7.38;;
74941;SDS011;63506;49.346;8.798;2022-09-24T08:13:20;8.98;;;6.63;;
74941;SDS011;63506;49.346;8.798;2022-09-24T08:15:54;6.15;;;5.55;;
74941;SDS011;63506;49.346;8.798;2022-09-24T08:18:24;8.10;;;6.78;;
74941;SDS011;63506;49.346;8.798;2022-09-24T08:20:53;7.97;;;6.55;;
74941;SDS011;63506;49.346;8.798;2022-09-24T08:23:20;5.90;;;5.38;;
74941;SDS011;63506;49.346;8.798;2022-09-24T08:25:49;8.25;;;6.75;;
74941;SDS011;63506;49.346;8.798;2022-09-24T08:28:20;8.07;;;6.13;;
74941;SDS011;63506;49.346;8.798;2022-09-24T08:30:49;7.35;;;6.63;;
74941;SDS011;63506;49.346;8.798;2022-09-24T08:33:30;7.20;;;5.72;;
74941;SDS011;63506;49.346;8.798;2022-09-24T08:36:01;11.02;;;7.05;;
74941;SDS011;63506;49.346;8.798;2022-09-24T08:38:28;10.63;;;8.50;;
74941;SDS011;63506;49.346;8.798;2022-09-24T08:43:43;10.68;;;9.23;;
74941;SDS011;63506;49.346;8.798;2022-09-24T08:46:22;8.18;;;7.38;;
74941;SDS011;63506;49.346;8.798;2022-09-24T08:49:22;8.88;;;7.88;;
74941;SDS011;63506;49.346;8.798;2022-09-24T08:52:06;8.60;;;7.80;;
74941;SDS011;63506;49.346;8.798;2022-09-24T08:54:45;8.38;;;7.35;;
74941;SDS011;63506;49.346;8.798;2022-09-24T08:57:14;10.40;;;8.13;;
74941;SDS011;63506;49.346;8.798;2022-09-24T08:59:49;13.98;;;8.07;;
74941;SDS011;63506;49.346;8.798;2022-09-24T09:05:08;9.27;;;8.38;;
74941;SDS011;63506;49.346;8.798;2022-09-24T09:07:54;13.07;;;9.27;;
74941;SDS011;63506;49.346;8.798;2022-09-24T09:10:41;13.98;;;10.93;;
74941;SDS011;63506;49.346;8.798;2022-09-24T09:13:14;19.60;;;9.45;;
74941;SDS011;63506;49.346;8.798;2022-09-24T09:15:56;10.05;;;8.90;;
74941;SDS011;63506;49.346;8.798;2022-09-24T09:18:32;11.80;;;9.05;;
74941;SDS011;63506;49.346;8.798;2022-09-24T09:23:58;13.27;;;9.27;;
74941;SDS011;63506;49.346;8.798;2022-09-24T09:26:30;13.57;;;9.68;;
74941;SDS011;63506;49.346;8.798;2022-09-24T09:28:59;9.88;;;8.75;;
74941;SDS011;63506;49.346;8.798;2022-09-24T09:31:52;12.95;;;9.35;;
74941;SDS011;63506;49.346;8.798;2022-09-24T09:42:58;11.70;;;9.93;;
74941;SDS011;63506;49.346;8.798;2022-09-24T09:48:23;9.80;;;8.80;;
74941;SDS011;63506;49.346;8.798;2022-09-24T09:50:58;10.80;;;9.52;;
74941;SDS011;63506;49.346;8.798;2022-09-24T09:53:33;11.82;;;10.02;;
74941;SDS011;63506;49.346;8.798;2022-09-24T09:56:05;13.13;;;10.30;;
74941;SDS011;63506;49.346;8.798;2022-09-24T10:01:06;9.93;;;8.93;;
74941;SDS011;63506;49.346;8.798;2022-09-24T10:06:07;11.43;;;10.23;;
74941;SDS011;63506;49.346;8.798;2022-09-24T10:08:33;11.10;;;9.13;;
74941;SDS011;63506;49.346;8.798;2022-09-24T10:11:04;10.68;;;8.93;;
74941;SDS011;63506;49.346;8.798;2022-09-24T10:13:35;12.32;;;8.63;;
74941;SDS011;63506;49.346;8.798;2022-09-24T10:16:04;10.45;;;8.38;;
74941;SDS011;63506;49.346;8.798;2022-09-24T10:18:41;11.70;;;9.50;;
74941;SDS011;63506;49.346;8.798;2022-09-24T10:21:12;9.38;;;8.18;;
74941;SDS011;63506;49.346;8.798;2022-09-24T10:23:43;10.43;;;8.63;;
74941;SDS011;63506;49.346;8.798;2022-09-24T10:26:14;7.47;;;6.63;;
74941;SDS011;63506;49.346;8.798;2022-09-24T10:28:47;11.55;;;7.30;;
74941;SDS011;63506;49.346;8.798;2022-09-24T10:31:34;5.60;;;5.10;;
74941;SDS011;63506;49.346;8.798;2022-09-24T10:34:17;5.20;;;4.70;;
74941;SDS011;63506;49.346;8.798;2022-09-24T10:36:57;4.82;;;4.28;;
74941;SDS011;63506;49.346;8.798;2022-09-24T10:39:28;6.57;;;4.68;;
74941;SDS011;63506;49.346;8.798;2022-09-24T10:41:57;5.50;;;4.47;;
74941;SDS011;63506;49.346;8.798;2022-09-24T10:44:26;5.07;;;4.57;;
74941;SDS011;63506;49.346;8.798;2022-09-24T10:58:32;6.55;;;5.03;;
74941;SDS011;63506;49.346;8.798;2022-09-24T11:07:38;5.90;;;4.10;;
74941;SDS011;63506;49.346;8.798;2022-09-24T11:16:07;7.65;;;4.07;;
74941;SDS011;63506;49.346;8.798;2022-09-24T11:32:47;6.90;;;4.38;;
74941;SDS011;63506;49.346;8.798;2022-09-24T11:54:58;4.38;;;3.92;;
74941;SDS011;63506;49.346;8.798;2022-09-24T11:57:43;5.47;;;4.93;;
74941;SDS011;63506;49.346;8.798;2022-09-24T12:00:36;5.45;;;4.53;;
74941;SDS011;63506;49.346;8.798;2022-09-24T12:03:18;7.75;;;5.00;;
74941;SDS011;63506;49.346;8.798;2022-09-24T12:05:53;13.88;;;7.05;;
74941;SDS011;63506;49.346;8.798;2022-09-24T12:08:33;7.07;;;5.53;;
74941;SDS011;63506;49.346;8.798;2022-09-24T12:11:07;7.13;;;5.10;;
74941;SDS011;63506;49.346;8.798;2022-09-24T12:13:44;4.38;;;3.97;;
74941;SDS011;63506;49.346;8.798;2022-09-24T12:16:17;5.78;;;5.15;;
74941;SDS011;63506;49.346;8.798;2022-09-24T12:18:54;5.72;;;4.90;;
74941;SDS011;63506;49.346;8.798;2022-09-24T12:21:25;5.32;;;4.82;;
74941;SDS011;63506;49.346;8.798;2022-09-24T12:24:01;5.95;;;5.25;;
74941;SDS011;63506;49.346;8.798;2022-09-24T12:26:36;6.50;;;4.78;;
74941;SDS011;63506;49.346;8.798;2022-09-24T12:29:14;6.88;;;5.20;;
74941;SDS011;63506;49.346;8.798;2022-09-24T12:38:00;11.82;;;5.05;;
74941;SDS011;63506;49.346;8.798;2022-09-24T12:43:50;6.53;;;5.00;;
74941;SDS011;63506;49.346;8.798;2022-09-24T12:54:56;7.97;;;6.07;;
74941;SDS011;63506;49.346;8.798;2022-09-24T12:57:26;4.68;;;4.20;;
74941;SDS011;63506;49.346;8.798;2022-09-24T13:00:03;6.45;;;4.57;;
74941;SDS011;63506;49.346;8.798;2022-09-24T13:02:49;5.30;;;4.18;;
74941;SDS011;63506;49.346;8.798;2022-09-24T13:10:30;5.65;;;4.93;;
74941;SDS011;63506;49.346;8.798;2022-09-24T13:12:58;6.40;;;5.05;;
74941;SDS011;63506;49.346;8.798;2022-09-24T13:18:05;5.70;;;4.53;;
74941;SDS011;63506;49.346;8.798;2022-09-24T13:37:01;8.00;;;6.07;;
74941;SDS011;63506;49.346;8.798;2022-09-24T13:39:44;8.05;;;5.03;;
74941;SDS011;63506;49.346;8.798;2022-09-24T13:45:03;7.10;;;6.03;;
74941;SDS011;63506;49.346;8.798;2022-09-24T13:47:50;6.32;;;5.20;;
74941;SDS011;63506;49.346;8.798;2022-09-24T13:50:27;5.40;;;4.90;;
74941;SDS011;63506;49.346;8.798;2022-09-24T13:53:03;7.05;;;5.40;;
74941;SDS011;63506;49.346;8.798;2022-09-24T13:55:42;7.60;;;5.00;;
74941;SDS011;63506;49.346;8.798;2022-09-24T13:58:34;5.57;;;5.07;;
74941;SDS011;63506;49.346;8.798;2022-09-24T14:01:26;7.25;;;5.15;;
74941;SDS011;63506;49.346;8.798;2022-09-24T14:03:58;11.55;;;6.13;;
74941;SDS011;63506;49.346;8.798;2022-09-24T14:06:36;9.57;;;5.55;;
74941;SDS011;63506;49.346;8.798;2022-09-24T14:09:13;5.88;;;5.28;;
74941;SDS011;63506;49.346;8.798;2022-09-24T14:11:54;6.65;;;5.53;;
74941;SDS011;63506;49.346;8.798;2022-09-24T14:14:24;6.60;;;5.57;;
74941;SDS011;63506;49.346;8.798;2022-09-24T14:17:07;6.10;;;5.15;;
74941;SDS011;63506;49.346;8.798;2022-09-24T14:19:36;7.63;;;5.80;;
74941;SDS011;63506;49.346;8.798;2022-09-24T14:22:03;6.53;;;4.97;;
74941;SDS011;63506;49.346;8.798;2022-09-24T14:24:47;5.85;;;5.18;;
74941;SDS011;63506;49.346;8.798;2022-09-24T14:27:42;5.78;;;5.20;;
74941;SDS011;63506;49.346;8.798;2022-09-24T14:30:30;7.18;;;5.40;;
74941;SDS011;63506;49.346;8.798;2022-09-24T14:33:02;10.38;;;5.40;;
74941;SDS011;63506;49.346;8.798;2022-09-24T14:35:32;7.50;;;4.55;;
74941;SDS011;63506;49.346;8.798;2022-09-24T14:38:35;5.05;;;4.40;;
74941;SDS011;63506;49.346;8.798;2022-09-24T14:40:57;6.85;;;5.18;;
74941;SDS011;63506;49.346;8.798;2022-09-24T14:43:30;6.03;;;5.07;;
74941;SDS011;63506;49.346;8.798;2022-09-24T14:46:06;6.82;;;5.72;;
74941;SDS011;63506;49.346;8.798;2022-09-24T14:48:44;6.25;;;5.65;;
74941;SDS011;63506;49.346;8.798;2022-09-24T14:51:27;4.82;;;4.40;;
74941;SDS011;63506;49.346;8.798;2022-09-24T14:53:58;9.40;;;5.80;;
74941;SDS011;63506;49.346;8.798;2022-09-24T14:56:30;6.07;;;5.50;;
74941;SDS011;63506;49.346;8.798;2022-09-24T14:58:58;6.00;;;4.68;;
74941;SDS011;63506;49.346;8.798;2022-09-24T15:01:29;7.68;;;5.75;;
74941;SDS011;63506;49.346;8.798;2022-09-24T15:03:58;7.65;;;4.95;;
74941;SDS011;63506;49.346;8.798;2022-09-24T15:06:28;8.07;;;5.60;;
74941;SDS011;63506;49.346;8.798;2022-09-24T15:09:05;7.65;;;5.93;;
74941;SDS011;63506;49.346;8.798;2022-09-24T15:11:43;7.70;;;5.68;;
74941;SDS011;63506;49.346;8.798;2022-09-24T15:16:50;6.78;;;6.13;;
74941;SDS011;63506;49.346;8.798;2022-09-24T15:19:25;7.72;;;5.57;;
74941;SDS011;63506;49.346;8.798;2022-09-24T15:21:55;6.15;;;5.10;;
74941;SDS011;63506;49.346;8.798;2022-09-24T15:24:22;6.60;;;5.85;;
74941;SDS011;63506;49.346;8.798;2022-09-24T15:27:05;7.20;;;6.38;;
74941;SDS011;63506;49.346;8.798;2022-09-24T15:29:45;5.32;;;4.82;;
74941;SDS011;63506;49.346;8.798;2022-09-24T15:32:14;8.02;;;5.45;;
74941;SDS011;63506;49.346;8.798;2022-09-24T15:34:44;8.30;;;5.82;;
74941;SDS011;63506;49.346;8.798;2022-09-24T15:37:15;11.23;;;6.22;;
74941;SDS011;63506;49.346;8.798;2022-09-24T15:39:45;5.55;;;5.03;;
74941;SDS011;63506;49.346;8.798;2022-09-24T15:42:22;6.05;;;4.95;;
74941;SDS011;63506;49.346;8.798;2022-09-24T15:44:50;7.25;;;5.63;;
74941;SDS011;63506;49.346;8.798;2022-09-24T15:47:16;6.38;;;4.95;;
74941;SDS011;63506;49.346;8.798;2022-09-24T15:49:43;6.07;;;5.22;;
74941;SDS011;63506;49.346;8.798;2022-09-24T15:52:16;6.55;;;5.20;;
74941;SDS011;63506;49.346;8.798;2022-09-24T15:54:49;11.07;;;6.43;;
74941;SDS011;63506;49.346;8.798;2022-09-24T15:57:19;6.28;;;5.53;;
74941;SDS011;63506;49.346;8.798;2022-09-24T15:59:52;6.18;;;4.85;;
74941;SDS011;63506;49.346;8.798;2022-09-24T16:02:22;5.68;;;4.55;;
74941;SDS011;63506;49.346;8.798;2022-09-24T16:04:52;5.82;;;5.22;;
74941;SDS011;63506;49.346;8.798;2022-09-24T16:07:18;6.80;;;4.32;;
74941;SDS011;63506;49.346;8.798;2022-09-24T16:09:47;9.40;;;8.60;;
74941;SDS011;63506;49.346;8.798;2022-09-24T16:12:18;8.20;;;6.30;;
74941;SDS011;63506;49.346;8.798;2022-09-24T16:14:45;7.17;;;6.10;;
74941;SDS011;63506;49.346;8.798;2022-09-24T16:17:12;7.25;;;4.93;;
74941;SDS011;63506;49.346;8.798;2022-09-24T16:19:38;6.40;;;4.75;;
74941;SDS011;63506;49.346;8.798;2022-09-24T16:22:06;10.30;;;4.90;;
74941;SDS011;63506;49.346;8.798;2022-09-24T16:24:34;9.80;;;5.40;;
74941;SDS011;63506;49.346;8.798;2022-09-24T16:27:00;6.75;;;5.10;;
74941;SDS011;63506;49.346;8.798;2022-09-24T16:29:29;5.10;;;4.50;;
74941;SDS011;63506;49.346;8.798;2022-09-24T16:31:55;6.45;;;4.93;;
74941;SDS011;63506;49.346;8.798;2022-09-24T16:34:21;6.10;;;4.60;;
74941;SDS011;63506;49.346;8.798;2022-09-24T16:36:47;4.88;;;4.45;;
74941;SDS011;63506;49.346;8.798;2022-09-24T16:39:14;7.05;;;5.57;;
74941;SDS011;63506;49.346;8.798;2022-09-24T16:41:45;5.95;;;5.35;;
74941;SDS011;63506;49.346;8.798;2022-09-24T16:44:15;4.95;;;4.47;;
74941;SDS011;63506;49.346;8.798;2022-09-24T16:46:42;5.75;;;4.50;;
74941;SDS011;63506;49.346;8.798;2022-09-24T16:49:09;6.53;;;5.20;;
74941;SDS011;63506;49.346;8.798;2022-09-24T16:51:40;6.38;;;5.75;;
74941;SDS011;63506;49.346;8.798;2022-09-24T16:54:09;7.70;;;5.22;;
74941;SDS011;63506;49.346;8.798;2022-09-24T16:56:40;9.98;;;5.53;;
74941;SDS011;63506;49.346;8.798;2022-09-24T16:59:07;6.93;;;5.10;;
74941;SDS011;63506;49.346;8.798;2022-09-24T17:01:35;4.65;;;4.00;;
74941;SDS011;63506;49.346;8.798;2022-09-24T17:04:01;8.23;;;5.40;;
74941;SDS011;63506;49.346;8.798;2022-09-24T17:06:30;6.53;;;5.25;;
74941;SDS011;63506;49.346;8.798;2022-09-24T17:08:57;7.70;;;4.93;;
74941;SDS011;63506;49.346;8.798;2022-09-24T17:11:44;9.30;;;5.60;;
74941;SDS011;63506;49.346;8.798;2022-09-24T17:14:18;6.03;;;5.35;;
74941;SDS011;63506;49.346;8.798;2022-09-24T17:16:47;6.70;;;5.63;;
74941;SDS011;63506;49.346;8.798;2022-09-24T17:19:16;6.72;;;6.03;;
74941;SDS011;63506;49.346;8.798;2022-09-24T17:21:42;8.50;;;6.63;;
74941;SDS011;63506;49.346;8.798;2022-09-24T17:24:13;8.23;;;6.50;;
74941;SDS011;63506;49.346;8.798;2022-09-24T17:26:39;6.97;;;4.63;;
74941;SDS011;63506;49.346;8.798;2022-09-24T17:29:05;6.28;;;5.10;;
74941;SDS011;63506;49.346;8.798;2022-09-24T17:31:36;8.05;;;5.55;;
74941;SDS011;63506;49.346;8.798;2022-09-24T17:34:04;7.28;;;5.60;;
74941;SDS011;63506;49.346;8.798;2022-09-24T17:36:36;7.30;;;6.60;;
74941;SDS011;63506;49.346;8.798;2022-09-24T17:39:03;7.70;;;6.63;;
74941;SDS011;63506;49.346;8.798;2022-09-24T17:41:32;7.53;;;6.10;;
74941;SDS011;63506;49.346;8.798;2022-09-24T17:43:59;6.85;;;5.45;;